KLNN/LNN METAR and TAF weather

Enter ICAO airport designator
Station Type Date Time Source
KLNN METAR 2019/08/22 09:15 UTC NOAA

KLNN 220915Z AUTO 02005G08KT 5SM SCT006 BKN015 OVC037 20/17 A2994 RMK AO1 T01970174


Station Type Date Time Source
KLNN Decoded METAR 2019/08/22 09:15 UTC NOAA

Station name not available
Aug 22, 2019 - 05:15 AM EDT / 2019.08.22 0915 UTC
Wind: from the NNE (020 degrees) at 6 MPH (5 KT) gusting to 9 MPH (8 KT):0
Visibility: 5 mile(s):0
Sky conditions: overcast
Temperature: 67.5 F (19.7 C)
Dew Point: 63.3 F (17.4 C)
Relative Humidity: 86%
Pressure (altimeter): 29.94 in. Hg (1013 hPa)
ob: KLNN 220915Z AUTO 02005G08KT 5SM SCT006 BKN015 OVC037 20/17 A2994 RMK AO1 T01970174
cycle: 9

Station Type Date Time Source
KLNN TAF UTC NOAA

Error!

Example: see airport list